Time;durP1;ratioP1;P1;durP2;ratioP2;P2;SDS_P1;SDS_P2;PMS_P1;PMS_P2;Temp;Humidity;BMP_temperature;BMP_pressure;BME280_temperature;BME280_humidity;BME280_pressure;Samples;Min_cycle;Max_cycle;Signal;HPM_P1;HPM_P2
2021/08/25 00:03:31;;;;;;;;;;;13.30;99.90;;;;;;8423888;28;19915;-64
2021/08/25 00:07:32;;;;;;;;;;;13.30;99.90;;;;;;8429491;28;19962;-64
2021/08/25 00:11:32;;;;;;;;;;;13.20;99.90;;;;;;8430638;28;19923;-64
2021/08/25 00:15:34;;;;;;;;;;;13.20;99.90;;;;;;8430710;28;20442;-64
2021/08/25 00:19:34;;;;;;;;;;;13.20;99.90;;;;;;8430302;28;20447;-64
2021/08/25 00:23:35;;;;;;;;;;;13.10;99.90;;;;;;8429042;28;19908;-64
2021/08/25 00:27:35;;;;;;;;;;;13.00;99.90;;;;;;8430467;28;19915;-64
2021/08/25 00:31:36;;;;;;;;;;;12.80;99.90;;;;;;8426450;28;19919;-64
2021/08/25 00:35:36;;;;;;;;;;;12.70;99.90;;;;;;8396524;28;20294;-64
2021/08/25 00:39:36;;;;;;;;;;;12.80;99.90;;;;;;8395888;28;20012;-64
2021/08/25 00:43:37;;;;;;;;;;;12.90;99.90;;;;;;8396124;28;19913;-64
2021/08/25 00:47:41;;;;;;;;;;;13.00;99.90;;;;;;8395914;28;19986;-64
2021/08/25 00:51:43;;;;;;;;;;;13.10;99.90;;;;;;8410958;28;19943;-64
2021/08/25 00:55:43;;;;;;;;;;;13.20;99.90;;;;;;8429307;28;20293;-64
2021/08/25 00:59:44;;;;;;;;;;;13.50;99.90;;;;;;8428871;28;19919;-64
2021/08/25 01:03:48;;;;;;;;;;;13.40;99.90;;;;;;8429185;28;19912;-64
2021/08/25 01:07:49;;;;;;;;;;;13.50;99.90;;;;;;8428847;28;20385;-64
2021/08/25 01:11:49;;;;;;;;;;;13.40;99.90;;;;;;8428972;28;19919;-64
2021/08/25 01:15:50;;;;;;;;;;;13.60;99.90;;;;;;8428491;28;20356;-64
2021/08/25 01:20:09;;;;;;;;;;;13.60;99.90;;;;;;8426474;28;19925;-64
2021/08/25 01:24:11;;;;;;;;;;;13.50;99.90;;;;;;8427408;28;20495;-64
2021/08/25 01:28:15;;;;;;;;;;;13.50;99.90;;;;;;8426872;28;19912;-64
2021/08/25 01:32:16;;;;;;;;;;;13.30;99.90;;;;;;8428269;28;19912;-64
2021/08/25 01:36:17;;;;;;;;;;;13.00;99.90;;;;;;8428240;28;19978;-64
2021/08/25 01:40:17;;;;;;;;;;;13.00;99.90;;;;;;8427674;28;19912;-64
2021/08/25 01:44:18;;;;;;;;;;;12.90;99.90;;;;;;8410771;28;19919;-64
2021/08/25 01:48:19;;;;;;;;;;;13.00;99.90;;;;;;8394306;28;19916;-64
2021/08/25 01:52:19;;;;;;;;;;;13.00;99.90;;;;;;8414726;28;20370;-64
2021/08/25 01:56:20;;;;;;;;;;;13.00;99.90;;;;;;8427981;28;19912;-64
2021/08/25 02:00:20;;;;;;;;;;;13.00;99.90;;;;;;8427317;28;19995;-64
2021/08/25 02:04:21;;;;;;;;;;;13.00;99.90;;;;;;8427662;28;19943;-65
2021/08/25 02:08:21;;;;;;;;;;;13.00;99.90;;;;;;8427040;28;19919;-64
2021/08/25 02:12:22;;;;;;;;;;;12.90;99.90;;;;;;8427333;28;19912;-64
2021/08/25 02:16:23;;;;;;;;;;;12.70;99.90;;;;;;8427206;28;19978;-64
2021/08/25 02:20:23;;;;;;;;;;;12.70;99.90;;;;;;8425499;28;19915;-64
2021/08/25 02:24:24;;;;;;;;;;;12.60;99.90;;;;;;8425820;28;20267;-65
2021/08/25 02:28:24;;;;;;;;;;;12.40;99.90;;;;;;8426272;28;20362;-64
2021/08/25 02:32:25;;;;;;;;;;;12.30;99.90;;;;;;8426201;28;19915;-64
2021/08/25 02:36:26;;;;;;;;;;;12.40;99.90;;;;;;8426108;28;19973;-64
2021/08/25 02:40:26;;;;;;;;;;;12.10;99.90;;;;;;8425942;28;19963;-64
2021/08/25 02:44:27;;;;;;;;;;;12.20;99.90;;;;;;8426729;28;20301;-64
2021/08/25 02:48:28;;;;;;;;;;;12.30;99.90;;;;;;8426242;28;19919;-65
2021/08/25 02:52:28;;;;;;;;;;;12.30;99.90;;;;;;8426628;28;19954;-65
2021/08/25 02:56:28;;;;;;;;;;;12.30;99.90;;;;;;8426565;28;19958;-64
2021/08/25 03:00:29;;;;;;;;;;;12.30;99.90;;;;;;8426263;28;19930;-64
2021/08/25 03:04:29;;;;;;;;;;;12.20;99.90;;;;;;8426555;28;20294;-64
2021/08/25 03:08:30;;;;;;;;;;;12.10;99.90;;;;;;8425658;28;19951;-65
2021/08/25 03:12:30;;;;;;;;;;;11.90;99.90;;;;;;8426126;28;20377;-64
2021/08/25 03:16:31;;;;;;;;;;;11.80;99.90;;;;;;8426237;28;20349;-64
2021/08/25 03:20:31;;;;;;;;;;;11.90;99.90;;;;;;8425499;28;19984;-65
2021/08/25 03:24:32;;;;;;;;;;;11.90;99.90;;;;;;8425712;28;19988;-64
2021/08/25 03:28:32;;;;;;;;;;;11.90;99.90;;;;;;8425439;28;19915;-65
2021/08/25 03:32:33;;;;;;;;;;;11.80;99.90;;;;;;8425676;28;19908;-64
2021/08/25 03:36:33;;;;;;;;;;;11.80;99.90;;;;;;8425322;28;19912;-64
2021/08/25 03:40:34;;;;;;;;;;;11.80;99.90;;;;;;8426033;28;20385;-64
2021/08/25 03:44:36;;;;;;;;;;;11.90;99.90;;;;;;8431748;28;20386;-64
2021/08/25 03:48:37;;;;;;;;;;;12.00;99.90;;;;;;8431448;28;20347;-64
2021/08/25 03:52:37;;;;;;;;;;;12.20;99.90;;;;;;8431348;28;19917;-64
2021/08/25 03:56:38;;;;;;;;;;;12.40;99.90;;;;;;8431219;28;19974;-64
2021/08/25 04:00:38;;;;;;;;;;;12.30;99.90;;;;;;8430681;28;19912;-64
2021/08/25 04:04:39;;;;;;;;;;;12.20;99.90;;;;;;8431090;28;19966;-64
2021/08/25 04:08:39;;;;;;;;;;;12.40;99.90;;;;;;8417481;28;19916;-64
2021/08/25 04:12:39;;;;;;;;;;;12.40;99.90;;;;;;8413152;28;19913;-64
2021/08/25 04:16:40;;;;;;;;;;;12.40;99.90;;;;;;8412862;28;20102;-64
2021/08/25 04:20:40;;;;;;;;;;;12.30;99.90;;;;;;8403493;28;19912;-64
2021/08/25 04:24:41;;;;;;;;;;;12.30;99.90;;;;;;8421367;28;19919;-64
2021/08/25 04:28:41;;;;;;;;;;;12.40;99.90;;;;;;8413352;28;20007;-64
2021/08/25 04:32:42;;;;;;;;;;;12.70;99.90;;;;;;8427641;28;19912;-64
2021/08/25 04:36:42;;;;;;;;;;;12.90;99.90;;;;;;8427648;28;19916;-64
2021/08/25 04:40:43;;;;;;;;;;;13.10;99.90;;;;;;8426539;28;20256;-64
2021/08/25 04:44:44;;;;;;;;;;;13.20;99.90;;;;;;8412258;28;19908;-64
2021/08/25 04:48:44;;;;;;;;;;;13.30;99.90;;;;;;8426972;28;19912;-64
2021/08/25 04:52:45;;;;;;;;;;;13.30;99.90;;;;;;8423980;28;19920;-64
2021/08/25 04:56:45;;;;;;;;;;;13.20;99.90;;;;;;8426457;28;19920;-64
2021/08/25 05:00:48;;;;;;;;;;;13.20;99.90;;;;;;8427465;28;20416;-64
2021/08/25 05:04:49;;;;;;;;;;;13.30;99.90;;;;;;8428997;28;19953;-64
2021/08/25 05:08:49;;;;;;;;;;;13.40;99.90;;;;;;8428221;28;19951;-65
2021/08/25 05:12:50;;;;;;;;;;;13.50;99.90;;;;;;8428836;28;19908;-64
2021/08/25 05:16:50;;;;;;;;;;;13.50;99.90;;;;;;8428498;28;20073;-64
2021/08/25 05:20:50;;;;;;;;;;;13.50;99.90;;;;;;8420040;28;20406;-64
2021/08/25 05:24:51;;;;;;;;;;;13.50;99.90;;;;;;8413792;28;19912;-64
2021/08/25 05:28:52;;;;;;;;;;;13.60;99.90;;;;;;8411534;28;19918;-64
2021/08/25 05:32:52;;;;;;;;;;;13.50;99.90;;;;;;8401766;28;19996;-64
2021/08/25 05:36:53;;;;;;;;;;;13.60;99.90;;;;;;8405794;28;20388;-64
2021/08/25 05:40:53;;;;;;;;;;;13.80;99.90;;;;;;8413882;28;19966;-64
2021/08/25 05:44:54;;;;;;;;;;;13.90;99.90;;;;;;8398503;28;19916;-64
2021/08/25 05:48:54;;;;;;;;;;;14.00;99.90;;;;;;8413638;28;19916;-64
2021/08/25 05:52:55;;;;;;;;;;;14.20;99.90;;;;;;8421937;28;19948;-65
2021/08/25 05:56:55;;;;;;;;;;;14.10;99.90;;;;;;8423595;28;20404;-64
2021/08/25 06:00:55;;;;;;;;;;;14.10;99.90;;;;;;8406867;28;19966;-64
2021/08/25 06:04:56;;;;;;;;;;;14.20;99.90;;;;;;8418052;28;19919;-65
2021/08/25 06:08:57;;;;;;;;;;;14.30;99.90;;;;;;8410634;28;19927;-64
2021/08/25 06:12:57;;;;;;;;;;;14.30;99.90;;;;;;8398214;28;19927;-64
2021/08/25 06:16:58;;;;;;;;;;;14.30;99.90;;;;;;8411056;28;19928;-64
2021/08/25 06:20:58;;;;;;;;;;;14.60;99.90;;;;;;8402952;28;19916;-64
2021/08/25 06:24:59;;;;;;;;;;;14.70;99.90;;;;;;8414671;28;19916;-64
2021/08/25 06:28:59;;;;;;;;;;;14.80;99.90;;;;;;8419803;28;19965;-64
2021/08/25 06:33:00;;;;;;;;;;;14.50;99.90;;;;;;8422767;28;20381;-64
2021/08/25 06:37:00;;;;;;;;;;;14.80;99.90;;;;;;8422712;28;20008;-64
2021/08/25 06:41:01;;;;;;;;;;;14.40;99.90;;;;;;8422853;28;19912;-64
2021/08/25 06:45:01;;;;;;;;;;;14.60;99.90;;;;;;8395700;28;19913;-64
2021/08/25 06:49:02;;;;;;;;;;;14.90;99.90;;;;;;8389842;28;19920;-64
2021/08/25 06:53:02;;;;;;;;;;;15.30;99.90;;;;;;8421102;28;19912;-64
2021/08/25 06:57:03;;;;;;;;;;;15.20;99.90;;;;;;8436137;28;19919;-65
2021/08/25 07:01:04;;;;;;;;;;;15.30;99.90;;;;;;8425843;28;20434;-64
2021/08/25 07:05:06;;;;;;;;;;;15.70;99.90;;;;;;8425640;28;20281;-64
2021/08/25 07:09:07;;;;;;;;;;;15.80;99.90;;;;;;8425165;28;19922;-64
2021/08/25 07:13:07;;;;;;;;;;;15.90;99.90;;;;;;8425526;28;19912;-64
2021/08/25 07:17:08;;;;;;;;;;;15.80;99.90;;;;;;8432160;28;20299;-64
2021/08/25 07:21:09;;;;;;;;;;;15.40;99.90;;;;;;8430213;28;20290;-64
2021/08/25 07:25:10;;;;;;;;;;;15.50;99.90;;;;;;8432744;28;19909;-64
2021/08/25 07:29:10;;;;;;;;;;;15.70;99.90;;;;;;8431781;28;19908;-64
2021/08/25 07:33:13;;;;;;;;;;;16.00;99.90;;;;;;8418635;28;19912;-64
2021/08/25 07:37:13;;;;;;;;;;;16.40;99.90;;;;;;8418618;28;19920;-64
2021/08/25 07:41:14;;;;;;;;;;;16.60;99.90;;;;;;8410117;28;19917;-64
2021/08/25 07:45:15;;;;;;;;;;;15.90;99.90;;;;;;8418658;28;19913;-65
2021/08/25 07:49:15;;;;;;;;;;;16.00;99.90;;;;;;8428561;28;19908;-64
2021/08/25 07:53:16;;;;;;;;;;;16.30;99.90;;;;;;8419486;28;19912;-64
2021/08/25 07:57:17;;;;;;;;;;;16.70;99.90;;;;;;8430848;28;19912;-64
2021/08/25 08:01:17;;;;;;;;;;;17.10;99.90;;;;;;8424522;28;19989;-65
2021/08/25 08:05:18;;;;;;;;;;;17.20;99.90;;;;;;8411167;28;19916;-65
2021/08/25 08:09:19;;;;;;;;;;;17.30;99.90;;;;;;8410045;28;19920;-65
2021/08/25 08:13:19;;;;;;;;;;;17.30;99.90;;;;;;8413449;28;19935;-64
2021/08/25 08:17:22;;;;;;;;;;;17.50;99.90;;;;;;8418630;28;19916;-65
2021/08/25 08:21:26;;;;;;;;;;;17.50;99.90;;;;;;8419795;28;19938;-64
2021/08/25 08:25:26;;;;;;;;;;;17.50;99.90;;;;;;8405121;28;19912;-64
2021/08/25 08:29:28;;;;;;;;;;;17.60;99.90;;;;;;8419427;28;19934;-65
2021/08/25 08:33:28;;;;;;;;;;;17.50;99.90;;;;;;8429841;28;19918;-64
2021/08/25 08:37:29;;;;;;;;;;;17.40;99.90;;;;;;8429478;28;19912;-65
2021/08/25 08:41:30;;;;;;;;;;;17.60;99.90;;;;;;8428290;28;19912;-64
2021/08/25 08:45:32;;;;;;;;;;;17.80;99.90;;;;;;8429264;28;19999;-64
2021/08/25 08:49:32;;;;;;;;;;;18.10;99.90;;;;;;8429131;28;19908;-64
2021/08/25 08:53:33;;;;;;;;;;;18.30;99.90;;;;;;8428862;28;20431;-65
2021/08/25 08:57:34;;;;;;;;;;;18.50;99.90;;;;;;8407271;28;20409;-65
2021/08/25 09:01:35;;;;;;;;;;;18.60;99.90;;;;;;8395777;28;19920;-65
2021/08/25 09:05:35;;;;;;;;;;;18.60;99.90;;;;;;8395271;28;20459;-65
2021/08/25 09:09:53;;;;;;;;;;;18.60;99.90;;;;;;8395315;28;19917;-65
2021/08/25 09:13:53;;;;;;;;;;;18.80;99.90;;;;;;8410396;28;19918;-65
2021/08/25 09:18:01;;;;;;;;;;;18.90;99.90;;;;;;8426908;28;19916;-65
2021/08/25 09:22:02;;;;;;;;;;;18.50;99.90;;;;;;8426633;28;19908;-65
2021/08/25 09:26:07;;;;;;;;;;;18.30;99.90;;;;;;8428309;28;19908;-64
2021/08/25 09:30:08;;;;;;;;;;;18.30;99.90;;;;;;8401981;28;19908;-65
2021/08/25 09:34:22;;;;;;;;;;;18.40;99.90;;;;;;8394413;28;19959;-65
2021/08/25 09:38:23;;;;;;;;;;;18.80;99.90;;;;;;8393271;28;19968;-65
2021/08/25 09:42:24;;;;;;;;;;;19.30;99.90;;;;;;8422423;28;19913;-65
2021/08/25 09:46:25;;;;;;;;;;;19.60;99.90;;;;;;8428019;28;19908;-65
2021/08/25 09:50:27;;;;;;;;;;;19.80;99.90;;;;;;8404754;28;20344;-65
2021/08/25 09:54:27;;;;;;;;;;;20.00;99.90;;;;;;8427451;28;19915;-65
2021/08/25 09:58:28;;;;;;;;;;;20.10;99.90;;;;;;8427013;28;19994;-65
2021/08/25 10:02:28;;;;;;;;;;;20.00;99.90;;;;;;8397834;28;19934;-65
2021/08/25 10:06:29;;;;;;;;;;;20.00;99.90;;;;;;8393608;28;19952;-65
2021/08/25 10:10:29;;;;;;;;;;;19.40;99.90;;;;;;8391980;28;19943;-65
2021/08/25 10:14:31;;;;;;;;;;;19.60;99.90;;;;;;8393572;28;19974;-65
2021/08/25 10:18:37;;;;;;;;;;;19.90;99.90;;;;;;8393533;28;20003;-65
2021/08/25 10:22:46;;;;;;;;;;;20.20;99.90;;;;;;8416072;28;19908;-65
2021/08/25 10:26:59;;;;;;;;;;;20.20;99.90;;;;;;8425375;28;19962;-65
2021/08/25 10:30:59;;;;;;;;;;;20.00;99.90;;;;;;8426067;28;19912;-65
2021/08/25 10:35:16;;;;;;;;;;;19.90;99.90;;;;;;8394714;28;20340;-65
2021/08/25 10:39:29;;;;;;;;;;;20.00;99.90;;;;;;8392448;28;19916;-65
2021/08/25 10:43:33;;;;;;;;;;;20.10;99.90;;;;;;8391843;28;19999;-65
2021/08/25 10:47:52;;;;;;;;;;;20.60;99.90;;;;;;8401077;28;19913;-65
2021/08/25 10:51:53;;;;;;;;;;;20.70;99.90;;;;;;8410153;28;20359;-65
2021/08/25 10:56:06;;;;;;;;;;;21.10;99.90;;;;;;8408245;28;19912;-65
2021/08/25 11:00:12;;;;;;;;;;;21.50;99.90;;;;;;8409479;28;19934;-65
2021/08/25 11:04:16;;;;;;;;;;;22.00;99.90;;;;;;8408791;28;19918;-65
2021/08/25 11:08:20;;;;;;;;;;;22.50;99.90;;;;;;8407779;28;19912;-65
2021/08/25 11:12:22;;;;;;;;;;;24.40;99.90;;;;;;8391083;28;19909;-64
2021/08/25 11:16:25;;;;;;;;;;;27.10;98.10;;;;;;8389333;28;19912;-65
2021/08/25 11:20:26;;;;;;;;;;;30.00;81.50;;;;;;8394220;28;19950;-65
2021/08/25 11:24:30;;;;;;;;;;;31.70;68.80;;;;;;8425276;28;19908;-65
2021/08/25 11:28:31;;;;;;;;;;;32.30;60.90;;;;;;8423490;28;20023;-64
2021/08/25 11:32:32;;;;;;;;;;;33.40;55.60;;;;;;8424745;28;19917;-64
2021/08/25 11:36:33;;;;;;;;;;;32.90;51.30;;;;;;8415968;28;19999;-65
2021/08/25 11:40:39;;;;;;;;;;;32.70;54.00;;;;;;8390502;28;21448;-64
2021/08/25 11:44:42;;;;;;;;;;;33.90;52.50;;;;;;8391655;28;20003;-65
2021/08/25 11:48:42;;;;;;;;;;;34.60;49.30;;;;;;8391268;28;19919;-65
2021/08/25 11:52:43;;;;;;;;;;;35.70;48.10;;;;;;8414805;28;19908;-66
2021/08/25 11:56:43;;;;;;;;;;;37.10;44.70;;;;;;8424487;28;20015;-64
2021/08/25 12:00:44;;;;;;;;;;;36.00;44.50;;;;;;8424981;28;19961;-65
2021/08/25 12:04:44;;;;;;;;;;;36.50;44.30;;;;;;8430916;28;19912;-65
2021/08/25 12:08:45;;;;;;;;;;;34.90;46.40;;;;;;8418435;28;19920;-65
2021/08/25 12:12:46;;;;;;;;;;;34.70;46.10;;;;;;8396840;28;19920;-65
2021/08/25 12:17:00;;;;;;;;;;;34.70;48.90;;;;;;8397300;28;19919;-65
2021/08/25 12:21:08;;;;;;;;;;;36.50;44.90;;;;;;8405593;28;19908;-65
2021/08/25 12:25:09;;;;;;;;;;;37.80;42.40;;;;;;8430655;28;20006;-65
2021/08/25 12:29:09;;;;;;;;;;;38.80;41.50;;;;;;8429728;28;20378;-65
2021/08/25 12:33:11;;;;;;;;;;;38.70;40.10;;;;;;8429759;28;19915;-65
2021/08/25 12:37:11;;;;;;;;;;;38.40;40.80;;;;;;8428572;28;19985;-65
2021/08/25 12:41:11;;;;;;;;;;;36.80;44.20;;;;;;8416418;28;19909;-66
2021/08/25 12:45:12;;;;;;;;;;;38.50;38.80;;;;;;8396090;28;19931;-65
2021/08/25 12:49:13;;;;;;;;;;;37.30;40.20;;;;;;8417383;28;19932;-66
2021/08/25 12:53:13;;;;;;;;;;;37.80;39.60;;;;;;8425069;28;19995;-65
2021/08/25 12:57:14;;;;;;;;;;;39.20;39.90;;;;;;8419786;28;19922;-65
2021/08/25 13:01:15;;;;;;;;;;;37.70;39.30;;;;;;8421419;28;19909;-65
2021/08/25 13:05:15;;;;;;;;;;;36.10;41.10;;;;;;8410517;28;19912;-65
2021/08/25 13:09:16;;;;;;;;;;;38.50;40.50;;;;;;8424257;28;20121;-65
2021/08/25 13:13:16;;;;;;;;;;;39.60;38.00;;;;;;8424479;28;19919;-66
2021/08/25 13:17:16;;;;;;;;;;;41.00;36.10;;;;;;8394528;28;19920;-65
2021/08/25 13:21:17;;;;;;;;;;;41.40;33.40;;;;;;8405225;28;19961;-65
2021/08/25 13:25:17;;;;;;;;;;;39.40;36.00;;;;;;8426969;28;19908;-65
2021/08/25 13:29:18;;;;;;;;;;;40.30;36.70;;;;;;8415846;28;19912;-65
2021/08/25 13:33:18;;;;;;;;;;;40.00;35.30;;;;;;8394404;28;19912;-66
2021/08/25 13:37:19;;;;;;;;;;;40.90;33.80;;;;;;8406255;28;19916;-65
2021/08/25 13:41:19;;;;;;;;;;;41.60;35.10;;;;;;8411828;28;20393;-66
2021/08/25 13:45:20;;;;;;;;;;;43.30;32.80;;;;;;8410617;28;20382;-66
2021/08/25 13:49:21;;;;;;;;;;;44.40;31.60;;;;;;8426392;28;19919;-65
2021/08/25 13:53:21;;;;;;;;;;;44.20;30.20;;;;;;8417815;28;19914;-65
2021/08/25 13:57:22;;;;;;;;;;;42.20;30.60;;;;;;8408385;28;19916;-65
2021/08/25 14:01:22;;;;;;;;;;;42.60;31.80;;;;;;8411687;28;20301;-65
2021/08/25 14:05:23;;;;;;;;;;;42.40;32.40;;;;;;8413702;28;19953;-65
2021/08/25 14:09:23;;;;;;;;;;;43.30;31.10;;;;;;8412182;28;20320;-65
2021/08/25 14:13:24;;;;;;;;;;;43.50;30.00;;;;;;8413333;28;19947;-66
2021/08/25 14:17:24;;;;;;;;;;;44.00;30.50;;;;;;8415745;28;19916;-65
2021/08/25 14:21:25;;;;;;;;;;;44.00;30.00;;;;;;8418806;28;19920;-65
2021/08/25 14:25:25;;;;;;;;;;;40.00;33.60;;;;;;8415637;28;19919;-66
2021/08/25 14:29:26;;;;;;;;;;;37.50;37.00;;;;;;8407951;28;19916;-65
2021/08/25 14:33:26;;;;;;;;;;;39.20;35.10;;;;;;8416392;28;19919;-65
2021/08/25 14:37:27;;;;;;;;;;;40.50;33.60;;;;;;8422485;28;19916;-65
2021/08/25 14:41:27;;;;;;;;;;;42.00;33.00;;;;;;8413212;28;20003;-65
2021/08/25 14:45:28;;;;;;;;;;;42.80;29.70;;;;;;8389472;28;19955;-65
2021/08/25 14:49:28;;;;;;;;;;;41.20;32.60;;;;;;8390657;28;19923;-65
2021/08/25 14:53:29;;;;;;;;;;;40.40;33.40;;;;;;8410882;28;20378;-65
2021/08/25 14:57:30;;;;;;;;;;;35.80;36.80;;;;;;8421147;28;19955;-65
2021/08/25 15:01:30;;;;;;;;;;;32.20;43.80;;;;;;8422605;28;19919;-65
2021/08/25 15:05:31;;;;;;;;;;;30.50;47.20;;;;;;8404228;28;19916;-65
2021/08/25 15:09:31;;;;;;;;;;;33.50;43.20;;;;;;8416707;28;19928;-66
2021/08/25 15:13:32;;;;;;;;;;;36.40;38.90;;;;;;8386350;28;19913;-66
2021/08/25 15:17:33;;;;;;;;;;;37.40;37.20;;;;;;8389690;28;19927;-66
2021/08/25 15:21:33;;;;;;;;;;;37.50;36.00;;;;;;8402250;28;20346;-66
2021/08/25 15:25:34;;;;;;;;;;;37.10;37.80;;;;;;8416373;28;19970;-66
2021/08/25 15:29:35;;;;;;;;;;;37.20;37.80;;;;;;8388714;28;19908;-66
2021/08/25 15:33:36;;;;;;;;;;;37.30;37.10;;;;;;8406472;28;19914;-66
2021/08/25 15:37:36;;;;;;;;;;;35.90;38.50;;;;;;8424176;28;19916;-66
2021/08/25 15:41:37;;;;;;;;;;;36.30;38.00;;;;;;8427617;28;20256;-66
2021/08/25 15:45:37;;;;;;;;;;;36.80;37.70;;;;;;8405671;28;19916;-66
2021/08/25 15:49:38;;;;;;;;;;;37.00;35.90;;;;;;8424406;28;19920;-66
2021/08/25 15:53:38;;;;;;;;;;;37.80;36.00;;;;;;8430040;28;20064;-65
2021/08/25 15:57:39;;;;;;;;;;;38.00;35.20;;;;;;8427479;28;20531;-66
2021/08/25 16:01:39;;;;;;;;;;;35.70;37.70;;;;;;8430574;28;20535;-66
2021/08/25 16:05:39;;;;;;;;;;;36.20;37.80;;;;;;8429375;28;20007;-66
2021/08/25 16:09:40;;;;;;;;;;;37.50;36.80;;;;;;8429936;28;19916;-66
2021/08/25 16:13:41;;;;;;;;;;;38.20;35.80;;;;;;8430270;28;19999;-65
2021/08/25 16:17:41;;;;;;;;;;;38.70;34.80;;;;;;8420065;28;19916;-65
2021/08/25 16:21:42;;;;;;;;;;;39.20;34.90;;;;;;8416053;28;19908;-66
2021/08/25 16:25:42;;;;;;;;;;;39.00;34.50;;;;;;8430170;28;19915;-66
2021/08/25 16:29:43;;;;;;;;;;;38.80;34.00;;;;;;8429809;28;20388;-66
2021/08/25 16:33:43;;;;;;;;;;;38.30;35.20;;;;;;8429921;28;19939;-66
2021/08/25 16:37:44;;;;;;;;;;;38.00;34.80;;;;;;8427833;28;19912;-66
2021/08/25 16:41:44;;;;;;;;;;;37.20;36.80;;;;;;8428267;28;19918;-65
2021/08/25 16:45:44;;;;;;;;;;;37.00;36.80;;;;;;8429477;28;19912;-66
2021/08/25 16:49:45;;;;;;;;;;;36.90;37.20;;;;;;8419084;28;19919;-66
2021/08/25 16:53:45;;;;;;;;;;;36.30;38.10;;;;;;8427881;28;19987;-66
2021/08/25 16:57:46;;;;;;;;;;;33.70;40.40;;;;;;8428740;28;20359;-66
2021/08/25 17:01:46;;;;;;;;;;;33.00;41.40;;;;;;8428794;28;19914;-66
2021/08/25 17:05:47;;;;;;;;;;;31.30;44.40;;;;;;8428788;28;20325;-65
2021/08/25 17:09:47;;;;;;;;;;;29.10;47.50;;;;;;8428300;28;19916;-65
2021/08/25 17:13:48;;;;;;;;;;;27.30;52.20;;;;;;8428736;28;19908;-65
2021/08/25 17:17:48;;;;;;;;;;;25.00;56.30;;;;;;8428202;28;19923;-66
2021/08/25 17:21:49;;;;;;;;;;;23.20;60.20;;;;;;8419482;28;19923;-66
2021/08/25 17:25:50;;;;;;;;;;;21.60;67.70;;;;;;8395078;28;20327;-65
2021/08/25 17:29:51;;;;;;;;;;;20.50;72.00;;;;;;8394792;28;19945;-65
2021/08/25 17:33:52;;;;;;;;;;;19.70;77.70;;;;;;8395000;28;19954;-65
2021/08/25 17:37:52;;;;;;;;;;;18.90;84.20;;;;;;8394189;28;20374;-65
2021/08/25 17:41:53;;;;;;;;;;;18.30;90.20;;;;;;8394641;28;19909;-65
2021/08/25 17:45:53;;;;;;;;;;;18.10;93.20;;;;;;8394383;28;19908;-65
2021/08/25 17:49:54;;;;;;;;;;;18.10;95.40;;;;;;8393159;28;19930;-65
2021/08/25 17:53:54;;;;;;;;;;;18.10;96.80;;;;;;8418493;28;20398;-65
2021/08/25 17:57:54;;;;;;;;;;;17.60;99.40;;;;;;8392198;28;19920;-65
2021/08/25 18:01:55;;;;;;;;;;;17.20;99.90;;;;;;8393399;28;19908;-65
2021/08/25 18:05:55;;;;;;;;;;;17.00;99.90;;;;;;8393672;28;20000;-65
2021/08/25 18:09:56;;;;;;;;;;;16.90;99.90;;;;;;8393057;28;19952;-65
2021/08/25 18:13:57;;;;;;;;;;;16.80;99.90;;;;;;8393320;28;20419;-65
2021/08/25 18:18:00;;;;;;;;;;;16.60;99.90;;;;;;8392556;28;19938;-64
2021/08/25 18:22:01;;;;;;;;;;;16.30;99.90;;;;;;8410559;28;19914;-65
2021/08/25 18:26:01;;;;;;;;;;;16.30;99.90;;;;;;8417423;28;19909;-65
2021/08/25 18:30:02;;;;;;;;;;;16.10;99.90;;;;;;8391128;28;19965;-65
2021/08/25 18:34:03;;;;;;;;;;;15.90;99.90;;;;;;8392581;28;20062;-65
2021/08/25 18:38:03;;;;;;;;;;;15.80;99.90;;;;;;8391956;28;19987;-64
2021/08/25 18:42:04;;;;;;;;;;;15.90;99.90;;;;;;8392724;28;19909;-64
2021/08/25 18:46:04;;;;;;;;;;;15.90;99.90;;;;;;8392591;28;20287;-64
2021/08/25 18:50:05;;;;;;;;;;;15.70;99.90;;;;;;8392209;28;19908;-64
2021/08/25 18:54:06;;;;;;;;;;;15.50;99.90;;;;;;8425742;28;19914;-64
2021/08/25 18:58:06;;;;;;;;;;;15.40;99.90;;;;;;8415097;28;19916;-65
2021/08/25 19:02:07;;;;;;;;;;;15.30;99.90;;;;;;8392128;28;20014;-64
2021/08/25 19:06:07;;;;;;;;;;;15.00;99.90;;;;;;8392101;28;19908;-64
2021/08/25 19:10:08;;;;;;;;;;;14.60;99.90;;;;;;8392768;28;19916;-65
2021/08/25 19:14:09;;;;;;;;;;;14.50;99.90;;;;;;8410176;28;20573;-64
2021/08/25 19:18:09;;;;;;;;;;;14.60;99.90;;;;;;8422213;28;19970;-65
2021/08/25 19:22:10;;;;;;;;;;;14.50;99.90;;;;;;8421122;28;19919;-65
2021/08/25 19:26:10;;;;;;;;;;;14.20;99.90;;;;;;8411983;28;19947;-64
2021/08/25 19:30:11;;;;;;;;;;;14.30;99.90;;;;;;8405341;28;19920;-64
2021/08/25 19:34:11;;;;;;;;;;;14.10;99.90;;;;;;8418778;28;20383;-65
2021/08/25 19:38:12;;;;;;;;;;;13.70;99.90;;;;;;8425979;28;20396;-65
2021/08/25 19:42:12;;;;;;;;;;;13.80;99.90;;;;;;8411551;28;19920;-65
2021/08/25 19:46:13;;;;;;;;;;;13.60;99.90;;;;;;8417037;28;19926;-64
2021/08/25 19:50:14;;;;;;;;;;;13.40;99.90;;;;;;8416539;28;19920;-64
2021/08/25 19:54:14;;;;;;;;;;;13.60;99.90;;;;;;8425014;28;19920;-64
2021/08/25 19:58:15;;;;;;;;;;;13.30;99.90;;;;;;8410455;28;19924;-65
2021/08/25 20:02:15;;;;;;;;;;;13.20;99.90;;;;;;8407282;28;19912;-64
2021/08/25 20:06:16;;;;;;;;;;;13.10;99.90;;;;;;8408889;28;19913;-64
2021/08/25 20:10:16;;;;;;;;;;;13.00;99.90;;;;;;8404874;28;19961;-64
2021/08/25 20:14:17;;;;;;;;;;;13.10;99.90;;;;;;8409337;28;19912;-64
2021/08/25 20:18:17;;;;;;;;;;;12.90;99.90;;;;;;8410652;28;19920;-63
2021/08/25 20:22:18;;;;;;;;;;;12.80;99.90;;;;;;8409636;28;19973;-64
2021/08/25 20:26:18;;;;;;;;;;;12.60;99.90;;;;;;8409740;28;20022;-64
2021/08/25 20:30:19;;;;;;;;;;;12.50;99.90;;;;;;8408553;28;19963;-64
2021/08/25 20:34:19;;;;;;;;;;;12.50;99.90;;;;;;8401330;28;20418;-64
2021/08/25 20:38:20;;;;;;;;;;;12.80;99.90;;;;;;8390466;28;19913;-64
2021/08/25 20:42:20;;;;;;;;;;;12.90;99.90;;;;;;8392902;28;19912;-64
2021/08/25 20:46:21;;;;;;;;;;;12.80;99.90;;;;;;8392010;28;19912;-64
2021/08/25 20:50:21;;;;;;;;;;;12.80;99.90;;;;;;8394775;28;19912;-64
2021/08/25 20:54:22;;;;;;;;;;;12.90;99.90;;;;;;8420046;28;19916;-64
2021/08/25 20:58:22;;;;;;;;;;;12.90;99.90;;;;;;8393369;28;19940;-65
2021/08/25 21:02:23;;;;;;;;;;;12.80;99.90;;;;;;8395358;28;20046;-65
2021/08/25 21:06:23;;;;;;;;;;;12.80;99.90;;;;;;8394400;28;19978;-65
2021/08/25 21:10:24;;;;;;;;;;;12.60;99.90;;;;;;8395446;28;19923;-65
2021/08/25 21:14:24;;;;;;;;;;;13.00;99.90;;;;;;8395950;28;19912;-64
2021/08/25 21:18:24;;;;;;;;;;;13.20;99.90;;;;;;8394441;28;20427;-64
2021/08/25 21:22:25;;;;;;;;;;;13.10;99.90;;;;;;8416842;28;19934;-64
2021/08/25 21:26:25;;;;;;;;;;;12.80;99.90;;;;;;8429274;28;19915;-65
2021/08/25 21:30:28;;;;;;;;;;;12.70;99.90;;;;;;8428221;28;19908;-65
2021/08/25 21:34:28;;;;;;;;;;;12.60;99.90;;;;;;8445761;28;19915;-65
2021/08/25 21:38:31;;;;;;;;;;;12.70;99.90;;;;;;8455256;28;19920;-65
2021/08/25 21:42:31;;;;;;;;;;;13.00;99.90;;;;;;8394955;28;19908;-64
2021/08/25 21:46:32;;;;;;;;;;;13.10;99.90;;;;;;8394584;28;19936;-64
2021/08/25 21:50:35;;;;;;;;;;;13.00;99.90;;;;;;8398256;28;19908;-64
2021/08/25 21:54:35;;;;;;;;;;;12.90;99.90;;;;;;8426798;28;20004;-64
2021/08/25 21:58:36;;;;;;;;;;;12.80;99.90;;;;;;8426626;28;19912;-64
2021/08/25 22:02:37;;;;;;;;;;;12.70;99.90;;;;;;8427550;28;19908;-65
2021/08/25 22:06:37;;;;;;;;;;;12.60;99.90;;;;;;8427619;28;20336;-64
2021/08/25 22:10:38;;;;;;;;;;;12.50;99.90;;;;;;8423063;28;19924;-65
2021/08/25 22:14:38;;;;;;;;;;;12.50;99.90;;;;;;8393145;28;20357;-64
2021/08/25 22:18:39;;;;;;;;;;;12.80;99.90;;;;;;8392096;28;20385;-65
2021/08/25 22:22:39;;;;;;;;;;;12.60;99.90;;;;;;8416403;28;19916;-64
2021/08/25 22:26:40;;;;;;;;;;;12.40;99.90;;;;;;8426874;28;19915;-64
2021/08/25 22:30:40;;;;;;;;;;;12.50;99.90;;;;;;8426274;28;19923;-65
2021/08/25 22:34:40;;;;;;;;;;;12.30;99.90;;;;;;8426505;28;19912;-64
2021/08/25 22:38:41;;;;;;;;;;;12.20;99.90;;;;;;8426059;28;20255;-64
2021/08/25 22:42:41;;;;;;;;;;;12.30;99.90;;;;;;8421477;28;20426;-64
2021/08/25 22:46:42;;;;;;;;;;;11.80;99.90;;;;;;8392433;28;20355;-64
2021/08/25 22:50:42;;;;;;;;;;;11.70;99.90;;;;;;8399059;28;19908;-64
2021/08/25 22:54:43;;;;;;;;;;;12.00;99.90;;;;;;8426130;28;19915;-64
2021/08/25 22:58:43;;;;;;;;;;;11.80;99.90;;;;;;8424214;28;19908;-64
2021/08/25 23:02:44;;;;;;;;;;;11.90;99.90;;;;;;8425821;28;19912;-64
2021/08/25 23:06:44;;;;;;;;;;;11.50;99.90;;;;;;8425854;28;19908;-65
2021/08/25 23:10:45;;;;;;;;;;;11.40;99.90;;;;;;8425099;28;19920;-64
2021/08/25 23:14:45;;;;;;;;;;;11.60;99.90;;;;;;8422308;28;19918;-64
2021/08/25 23:18:46;;;;;;;;;;;11.40;99.90;;;;;;8390541;28;20374;-64
2021/08/25 23:22:46;;;;;;;;;;;11.30;99.90;;;;;;8415076;28;19955;-64